Time;durP1;ratioP1;P1;durP2;ratioP2;P2;SDS_P1;SDS_P2;PMS_P1;PMS_P2;Temp;Humidity;BMP_temperature;BMP_pressure;BME280_temperature;BME280_humidity;BME280_pressure;Samples;Min_cycle;Max_cycle;Signal;HPM_P1;HPM_P2
2022/06/28 00:01:51;;;;;;;9.00;2.30;;;14.30;99.90;;;;;;5088586;28;20193;-82
2022/06/28 00:04:18;;;;;;;7.53;2.10;;;14.40;99.90;;;;;;5086632;28;20208;-79
2022/06/28 00:06:45;;;;;;;7.87;1.97;;;14.30;99.90;;;;;;5086641;28;20221;-84
2022/06/28 00:09:14;;;;;;;6.43;1.70;;;14.30;99.90;;;;;;5087881;28;20228;-83
2022/06/28 00:11:41;;;;;;;6.43;1.70;;;14.30;99.90;;;;;;5076192;28;20229;-84
2022/06/28 00:16:04;;;;;;;7.23;1.80;;;14.30;99.90;;;;;;5069747;28;20201;-79
2022/06/28 00:16:57;;;;;;;7.33;1.70;;;14.30;99.90;;;;;;5070347;28;20345;-83
2022/06/28 00:19:23;;;;;;;5.20;1.70;;;14.30;99.90;;;;;;5084385;28;20603;-85
2022/06/28 00:21:51;;;;;;;5.03;1.80;;;14.30;99.90;;;;;;5089076;28;20197;-83
2022/06/28 00:24:18;;;;;;;4.20;1.50;;;14.30;99.90;;;;;;5089284;28;20215;-84
2022/06/28 00:26:45;;;;;;;4.07;1.57;;;14.30;99.90;;;;;;5089095;28;20207;-80
2022/06/28 00:29:12;;;;;;;4.13;1.60;;;14.30;99.90;;;;;;5089329;28;20235;-79
2022/06/28 00:31:39;;;;;;;3.87;1.27;;;14.30;99.90;;;;;;5088905;28;20503;-78
2022/06/28 00:34:08;;;;;;;5.23;1.37;;;14.30;99.90;;;;;;5089669;28;20205;-84
2022/06/28 00:36:35;;;;;;;6.17;2.23;;;14.30;99.90;;;;;;5070499;28;20626;-82
2022/06/28 00:39:02;;;;;;;8.93;1.57;;;14.30;99.90;;;;;;5067673;28;20194;-81
2022/06/28 00:41:29;;;;;;;8.73;1.67;;;14.30;99.90;;;;;;5077795;28;20242;-80
2022/06/28 00:43:56;;;;;;;5.87;1.53;;;14.30;99.90;;;;;;5089455;28;20292;-81
2022/06/28 00:46:24;;;;;;;7.00;1.93;;;14.30;99.90;;;;;;5088184;28;20193;-80
2022/06/28 00:48:51;;;;;;;3.80;1.40;;;14.40;99.90;;;;;;5086299;28;20596;-80
2022/06/28 00:51:20;;;;;;;4.90;1.50;;;14.40;99.90;;;;;;5068010;28;20614;-82
2022/06/28 00:53:47;;;;;;;4.90;1.37;;;14.50;99.90;;;;;;5069034;28;20344;-82
2022/06/28 00:56:13;;;;;;;3.97;1.53;;;14.50;99.90;;;;;;5075642;28;20205;-83
2022/06/28 00:58:40;;;;;;;8.37;2.13;;;14.50;99.90;;;;;;5074023;28;20292;-83
2022/06/28 01:01:07;;;;;;;6.77;1.90;;;14.60;99.90;;;;;;5066588;28;20219;-82
2022/06/28 01:03:34;;;;;;;7.63;2.30;;;14.60;99.90;;;;;;5067412;28;20205;-84
2022/06/28 01:06:01;;;;;;;7.70;1.67;;;14.60;99.90;;;;;;5080737;28;20224;-80
2022/06/28 01:08:29;;;;;;;7.77;1.50;;;14.60;99.90;;;;;;5086068;28;20208;-85
2022/06/28 01:10:56;;;;;;;5.57;1.77;;;14.60;99.90;;;;;;5066154;28;20514;-84
2022/06/28 01:13:23;;;;;;;5.67;1.63;;;14.70;99.90;;;;;;5066628;28;20221;-84
2022/06/28 01:15:50;;;;;;;8.97;1.87;;;14.80;99.90;;;;;;5079372;28;20295;-80
2022/06/28 01:18:17;;;;;;;8.57;2.40;;;14.80;99.90;;;;;;5085068;28;20215;-83
2022/06/28 01:20:45;;;;;;;4.77;1.80;;;14.80;99.90;;;;;;5084569;28;20675;-79
2022/06/28 01:23:15;;;;;;;7.20;2.03;;;14.80;99.90;;;;;;5085307;28;20224;-86
2022/06/28 01:25:43;;;;;;;3.90;2.00;;;14.90;99.90;;;;;;5086512;28;20196;-81
2022/06/28 01:28:11;;;;;;;9.93;2.13;;;14.90;99.90;;;;;;5071694;22;20256;-80
2022/06/28 01:30:38;;;;;;;6.97;2.50;;;14.90;99.90;;;;;;5063228;28;20201;-79
2022/06/28 01:33:05;;;;;;;6.40;1.80;;;14.90;99.90;;;;;;5063901;28;20228;-80
2022/06/28 01:35:31;;;;;;;11.50;2.80;;;14.90;99.90;;;;;;5062959;28;20627;-78
2022/06/28 01:37:59;;;;;;;5.87;1.80;;;14.80;99.90;;;;;;5063064;28;20209;-78
2022/06/28 01:40:28;;;;;;;6.70;1.90;;;14.80;99.90;;;;;;5063489;28;20286;-80
2022/06/28 01:42:55;;;;;;;10.50;2.07;;;14.80;99.90;;;;;;5043302;28;20212;-79
2022/06/28 01:45:22;;;;;;;9.07;1.90;;;14.80;99.90;;;;;;5052152;28;20579;-79
2022/06/28 01:47:49;;;;;;;13.03;2.80;;;14.80;99.90;;;;;;5063414;28;20197;-79
2022/06/28 01:50:16;;;;;;;9.63;2.47;;;14.90;99.90;;;;;;5063460;28;20211;-79
2022/06/28 01:52:44;;;;;;;9.53;2.40;;;14.90;99.90;;;;;;5063410;28;20217;-79
2022/06/28 01:55:11;;;;;;;6.60;2.33;;;14.90;99.90;;;;;;5063718;28;20231;-78
2022/06/28 01:57:40;;;;;;;11.30;2.73;;;15.00;99.90;;;;;;5063153;28;20218;-79
2022/06/28 02:00:09;;;;;;;10.93;2.43;;;15.00;99.90;;;;;;5049087;28;20595;-82
2022/06/28 02:02:36;;;;;;;8.83;2.20;;;15.10;99.90;;;;;;5043148;28;20205;-79
2022/06/28 02:05:03;;;;;;;6.13;2.30;;;15.10;99.90;;;;;;5043919;28;20210;-79
2022/06/28 02:07:30;;;;;;;12.17;1.93;;;15.10;99.90;;;;;;5043564;28;20243;-78
2022/06/28 02:09:57;;;;;;;8.93;2.43;;;15.00;99.90;;;;;;5043481;28;20201;-78
2022/06/28 02:12:26;;;;;;;10.73;2.57;;;15.10;99.90;;;;;;5043529;28;20230;-78
2022/06/28 02:14:54;;;;;;;10.33;3.13;;;15.10;99.90;;;;;;5043652;28;20320;-78
2022/06/28 02:17:21;;;;;;;12.47;3.10;;;15.10;99.90;;;;;;5042779;28;20958;-78
2022/06/28 02:19:48;;;;;;;11.83;3.10;;;15.10;99.90;;;;;;5053852;28;20216;-78
2022/06/28 02:22:15;;;;;;;12.47;2.50;;;15.10;99.90;;;;;;5043478;28;20208;-79
2022/06/28 02:24:42;;;;;;;11.00;2.30;;;15.10;99.90;;;;;;5043085;28;20198;-84
2022/06/28 02:27:09;;;;;;;9.87;2.50;;;15.10;99.90;;;;;;5042532;28;20237;-77
2022/06/28 02:29:36;;;;;;;13.83;2.87;;;15.10;99.90;;;;;;5043303;28;20204;-78
2022/06/28 02:32:05;;;;;;;11.90;2.53;;;15.10;99.90;;;;;;5042994;28;20202;-79
2022/06/28 02:42:47;;;;;;;11.07;2.80;;;15.20;99.90;;;;;;5045274;28;20304;-82
2022/06/28 02:45:14;;;;;;;11.07;3.00;;;15.30;99.90;;;;;;5052237;28;20194;-85
2022/06/28 02:47:43;;;;;;;12.50;2.93;;;15.30;99.90;;;;;;5048449;28;20190;-84
2022/06/28 02:50:10;;;;;;;14.70;2.90;;;15.40;99.90;;;;;;5066647;28;20223;-84
2022/06/28 02:52:38;;;;;;;22.20;3.80;;;15.30;99.90;;;;;;5072817;28;20217;-86
2022/06/28 02:55:06;;;;;;;16.67;3.47;;;15.30;99.90;;;;;;5073058;28;20197;-86
2022/06/28 02:57:33;;;;;;;15.70;3.63;;;15.30;99.90;;;;;;5068966;28;20217;-83
2022/06/28 03:00:00;;;;;;;11.17;2.60;;;15.40;99.90;;;;;;5050683;28;20206;-86
2022/06/28 03:02:27;;;;;;;18.07;4.40;;;15.30;99.90;;;;;;5052199;28;20217;-80
2022/06/28 03:04:56;;;;;;;15.63;3.30;;;15.30;99.90;;;;;;5051674;28;20202;-84
2022/06/28 03:07:23;;;;;;;10.47;2.90;;;15.30;99.90;;;;;;5051110;28;20232;-83
2022/06/28 03:09:49;;;;;;;11.97;2.90;;;15.30;99.90;;;;;;5051803;28;20275;-80
2022/06/28 03:12:16;;;;;;;14.02;3.30;;;15.30;99.90;;;;;;5050561;28;20321;-84
2022/06/28 03:14:44;;;;;;;15.30;4.83;;;15.30;99.90;;;;;;5051870;28;20281;-82
2022/06/28 03:17:10;;;;;;;19.37;4.07;;;15.30;99.90;;;;;;5071878;28;20189;-80
2022/06/28 03:19:37;;;;;;;13.87;3.10;;;15.30;99.90;;;;;;5071468;28;20212;-80
2022/06/28 03:22:08;;;;;;;16.33;3.03;;;15.30;99.90;;;;;;5069233;28;20215;-76
2022/06/28 03:24:35;;;;;;;13.37;2.80;;;15.30;99.90;;;;;;5069118;28;20197;-81
2022/06/28 03:27:02;;;;;;;14.60;3.20;;;15.30;99.90;;;;;;5051156;28;20233;-81
2022/06/28 03:29:28;;;;;;;15.80;3.00;;;15.30;99.90;;;;;;5051024;28;20235;-83
2022/06/28 03:31:55;;;;;;;8.17;2.43;;;15.30;99.90;;;;;;5050031;28;20202;-81
2022/06/28 03:34:22;;;;;;;13.23;3.03;;;15.20;99.90;;;;;;5049980;28;20625;-82
2022/06/28 03:36:50;;;;;;;9.97;2.70;;;15.30;99.90;;;;;;5050872;28;20202;-80
2022/06/28 03:39:18;;;;;;;9.13;2.37;;;15.30;99.90;;;;;;5057482;28;20251;-75
2022/06/28 03:41:45;;;;;;;9.10;2.77;;;15.30;99.90;;;;;;5068972;28;20612;-82
2022/06/28 03:44:12;;;;;;;13.60;3.20;;;15.30;99.90;;;;;;5070353;28;20205;-83
2022/06/28 03:46:39;;;;;;;9.57;2.57;;;15.30;99.90;;;;;;5070429;28;20706;-82
2022/06/28 03:49:06;;;;;;;11.50;2.90;;;15.30;99.90;;;;;;5068456;28;20198;-81
2022/06/28 03:51:33;;;;;;;8.63;2.58;;;15.30;99.90;;;;;;5071700;28;20220;-83
2022/06/28 03:54:00;;;;;;;11.37;2.30;;;15.30;99.90;;;;;;5070703;28;20239;-82
2022/06/28 03:56:28;;;;;;;10.90;2.67;;;15.30;99.90;;;;;;5070266;28;20198;-81
2022/06/28 03:58:55;;;;;;;14.10;3.43;;;15.30;99.90;;;;;;5071386;28;20228;-82
2022/06/28 04:01:22;;;;;;;10.07;2.60;;;15.30;99.90;;;;;;5061081;28;20242;-76
2022/06/28 04:03:49;;;;;;;10.67;2.53;;;15.30;99.90;;;;;;5049924;28;20284;-80
2022/06/28 04:06:16;;;;;;;13.23;3.53;;;15.30;99.90;;;;;;5050349;28;20228;-82
2022/06/28 04:08:42;;;;;;;9.60;2.47;;;15.40;99.90;;;;;;5067736;28;20295;-84
2022/06/28 04:11:15;;;;;;;7.57;2.03;;;15.40;99.90;;;;;;5068391;28;20288;-80
2022/06/28 04:13:45;;;;;;;13.17;2.83;;;15.40;99.90;;;;;;5063368;28;20510;-83
2022/06/28 04:16:12;;;;;;;13.50;3.27;;;15.50;99.90;;;;;;5047958;28;20216;-85
2022/06/28 04:18:39;;;;;;;14.53;3.30;;;15.50;99.90;;;;;;5048723;28;20202;-81
2022/06/28 04:21:07;;;;;;;12.80;3.60;;;15.60;99.90;;;;;;5046192;28;20205;-79
2022/06/28 04:23:34;;;;;;;10.00;2.47;;;15.70;99.90;;;;;;5045183;28;20206;-81
2022/06/28 04:26:01;;;;;;;9.97;2.77;;;15.70;99.90;;;;;;5047611;28;20289;-85
2022/06/28 04:28:28;;;;;;;10.03;2.73;;;15.80;99.90;;;;;;5049546;28;20661;-85
2022/06/28 04:30:58;;;;;;;11.33;3.27;;;15.80;99.90;;;;;;5049422;28;20275;-84
2022/06/28 04:33:25;;;;;;;11.13;2.33;;;15.70;99.90;;;;;;5049132;28;20235;-83
2022/06/28 04:35:52;;;;;;;10.00;2.85;;;15.70;99.90;;;;;;5048594;28;20205;-85
2022/06/28 04:38:19;;;;;;;6.27;2.13;;;15.70;99.90;;;;;;5046971;28;20201;-81
2022/06/28 04:40:46;;;;;;;3.60;1.93;;;15.60;99.90;;;;;;5051718;28;20201;-80
2022/06/28 04:43:13;;;;;;;10.73;2.50;;;15.60;99.90;;;;;;5068608;28;20223;-82
2022/06/28 04:45:40;;;;;;;9.50;2.53;;;15.60;99.90;;;;;;5067221;28;20189;-83
2022/06/28 04:48:09;;;;;;;11.43;2.57;;;15.60;99.90;;;;;;5068424;28;20636;-80
2022/06/28 04:50:36;;;;;;;7.22;2.28;;;15.60;99.90;;;;;;5055485;28;20206;-83
2022/06/28 04:53:02;;;;;;;8.90;2.77;;;15.70;99.90;;;;;;5048154;28;20214;-78
2022/06/28 04:55:29;;;;;;;10.73;2.70;;;15.70;99.90;;;;;;5048227;28;20198;-85
2022/06/28 04:57:57;;;;;;;14.90;2.90;;;15.70;99.90;;;;;;5049385;28;20590;-83
2022/06/28 05:00:24;;;;;;;9.32;2.72;;;15.70;99.90;;;;;;5047298;28;20479;-82
2022/06/28 05:02:51;;;;;;;9.40;2.57;;;15.80;99.90;;;;;;5047521;28;20292;-80
2022/06/28 05:05:20;;;;;;;8.77;2.92;;;15.90;99.90;;;;;;5046206;28;20217;-84
2022/06/28 05:07:47;;;;;;;9.95;3.38;;;16.00;99.90;;;;;;5046448;28;20628;-84
2022/06/28 05:10:14;;;;;;;8.55;2.70;;;16.10;99.90;;;;;;5046358;28;20198;-82
2022/06/28 05:12:41;;;;;;;10.02;3.20;;;16.30;99.90;;;;;;5045255;28;20613;-83
2022/06/28 05:15:08;;;;;;;8.88;2.83;;;16.40;99.90;;;;;;5046594;28;20237;-83
2022/06/28 05:17:35;;;;;;;9.20;2.78;;;16.60;99.90;;;;;;5045996;28;20267;-83
2022/06/28 05:20:02;;;;;;;7.88;1.98;;;16.70;99.90;;;;;;5045920;28;20304;-82
2022/06/28 05:22:31;;;;;;;9.80;2.70;;;16.80;99.90;;;;;;5046910;28;20229;-78
2022/06/28 05:24:58;;;;;;;7.05;1.77;;;17.10;99.90;;;;;;5062840;28;20215;-79
2022/06/28 05:27:24;;;;;;;8.15;2.55;;;17.40;99.90;;;;;;5066357;28;20237;-84
2022/06/28 05:29:51;;;;;;;10.88;3.10;;;17.70;99.90;;;;;;5066384;28;20201;-84
2022/06/28 05:32:18;;;;;;;8.25;2.28;;;18.00;99.90;;;;;;5046924;28;20317;-78
2022/06/28 05:34:46;;;;;;;7.68;2.25;;;18.30;99.90;;;;;;5046155;28;20233;-82
2022/06/28 05:37:12;;;;;;;7.40;2.55;;;18.60;99.90;;;;;;5048783;28;20286;-83
2022/06/28 05:39:41;;;;;;;7.50;2.10;;;19.00;99.90;;;;;;5047443;28;20486;-79
2022/06/28 05:42:08;;;;;;;9.82;2.35;;;19.30;99.90;;;;;;5046849;28;20208;-80
2022/06/28 05:44:35;;;;;;;6.05;2.15;;;19.60;99.90;;;;;;5047174;28;20197;-81
2022/06/28 05:47:02;;;;;;;7.40;2.38;;;20.00;99.90;;;;;;5057818;28;20620;-83
2022/06/28 05:49:29;;;;;;;10.93;2.40;;;20.40;99.90;;;;;;5066051;28;20497;-83
2022/06/28 05:51:56;;;;;;;9.40;2.20;;;20.60;99.90;;;;;;5058520;28;20566;-84
2022/06/28 05:54:22;;;;;;;6.43;2.22;;;20.80;99.90;;;;;;5046569;28;20848;-85
2022/06/28 05:56:51;;;;;;;8.35;2.20;;;21.00;99.90;;;;;;5045505;28;20304;-82
2022/06/28 05:59:18;;;;;;;9.65;2.17;;;21.30;99.90;;;;;;5045450;28;20201;-81
2022/06/28 06:01:45;;;;;;;7.47;2.28;;;21.50;99.90;;;;;;5044519;28;20218;-80
2022/06/28 06:04:12;;;;;;;11.38;2.75;;;21.50;99.90;;;;;;5047952;28;20263;-83
2022/06/28 06:06:38;;;;;;;10.10;3.00;;;21.60;99.90;;;;;;5046796;28;20229;-82
2022/06/28 06:09:05;;;;;;;8.95;2.75;;;21.80;99.90;;;;;;5045949;28;20201;-80
2022/06/28 06:11:32;;;;;;;7.53;2.45;;;21.90;99.90;;;;;;5047108;28;20750;-79
2022/06/28 06:14:00;;;;;;;12.77;2.50;;;22.00;99.90;;;;;;5045884;28;20224;-81
2022/06/28 06:16:27;;;;;;;10.70;2.33;;;22.20;99.90;;;;;;5046178;28;20628;-82
2022/06/28 06:18:54;;;;;;;7.57;2.42;;;22.40;99.90;;;;;;5051903;28;20209;-84
2022/06/28 06:21:21;;;;;;;7.40;2.20;;;22.70;99.90;;;;;;5050806;28;20205;-83
2022/06/28 06:23:48;;;;;;;8.20;2.42;;;22.80;99.90;;;;;;5050181;28;20209;-81
2022/06/28 06:26:14;;;;;;;6.95;2.20;;;22.80;99.90;;;;;;5049017;28;20201;-81
2022/06/28 06:28:41;;;;;;;9.77;2.47;;;22.90;99.90;;;;;;5050651;28;20229;-82
2022/06/28 06:31:09;;;;;;;8.50;2.03;;;23.20;99.90;;;;;;5050256;28;20206;-81
2022/06/28 06:33:36;;;;;;;8.10;2.17;;;23.30;99.90;;;;;;5049035;28;20217;-82
2022/06/28 06:36:04;;;;;;;9.02;2.13;;;23.60;99.90;;;;;;5049573;28;20217;-82
2022/06/28 06:38:31;;;;;;;9.65;2.42;;;23.80;99.90;;;;;;5048726;28;20213;-81
2022/06/28 06:40:59;;;;;;;10.93;2.53;;;24.00;99.90;;;;;;5048762;28;20206;-82
2022/06/28 06:43:27;;;;;;;9.07;2.28;;;24.00;99.90;;;;;;5051236;28;20210;-80
2022/06/28 06:45:54;;;;;;;7.72;2.00;;;24.10;99.90;;;;;;5041234;28;20890;-83
2022/06/28 06:48:23;;;;;;;11.65;2.95;;;24.00;99.90;;;;;;5067941;28;20232;-80
2022/06/28 06:50:50;;;;;;;10.68;2.78;;;24.00;99.90;;;;;;5052004;28;20213;-81
2022/06/28 06:53:19;;;;;;;7.80;2.30;;;23.50;99.90;;;;;;5059365;28;20214;-81
2022/06/28 06:55:46;;;;;;;6.85;2.50;;;23.60;99.90;;;;;;5059770;28;20237;-79
2022/06/28 06:58:13;;;;;;;8.63;2.97;;;23.60;99.90;;;;;;5063147;28;20205;-80
2022/06/28 07:00:41;;;;;;;10.73;3.22;;;23.70;99.90;;;;;;5067910;28;20209;-82
2022/06/28 07:03:08;;;;;;;9.27;2.92;;;23.90;99.90;;;;;;5059534;28;20207;-79
2022/06/28 07:05:36;;;;;;;11.40;2.30;;;24.10;99.90;;;;;;5067362;28;20201;-82
2022/06/28 07:08:04;;;;;;;9.55;2.28;;;24.50;99.90;;;;;;5069606;28;20315;-82
2022/06/28 07:10:31;;;;;;;11.30;2.50;;;24.50;99.90;;;;;;5057851;28;20213;-79
2022/06/28 07:12:57;;;;;;;9.85;2.60;;;24.50;99.90;;;;;;5048847;28;20941;-83
2022/06/28 07:15:25;;;;;;;6.57;1.92;;;24.30;99.90;;;;;;5049762;28;20221;-81
2022/06/28 07:17:51;;;;;;;7.05;2.20;;;23.90;99.90;;;;;;5050684;28;20209;-82
2022/06/28 07:20:18;;;;;;;9.50;2.45;;;23.90;99.90;;;;;;5069135;28;20209;-81
2022/06/28 07:22:46;;;;;;;9.00;2.67;;;23.90;99.90;;;;;;5073219;28;20705;-78
2022/06/28 07:25:14;;;;;;;11.55;2.58;;;23.70;99.90;;;;;;5068757;28;20296;-78
2022/06/28 07:27:41;;;;;;;7.82;2.13;;;23.30;99.90;;;;;;5068619;28;20251;-79
2022/06/28 07:30:10;;;;;;;9.02;2.90;;;23.30;99.90;;;;;;5074157;28;20508;-78
2022/06/28 07:32:37;;;;;;;8.45;2.08;;;23.10;99.90;;;;;;5053553;28;20289;-78
2022/06/28 07:35:05;;;;;;;8.13;1.90;;;22.80;99.90;;;;;;5052218;28;20235;-78
2022/06/28 07:37:32;;;;;;;8.60;3.05;;;22.60;99.90;;;;;;5055106;28;20280;-79
2022/06/28 07:40:00;;;;;;;6.85;2.30;;;22.70;99.90;;;;;;5076111;28;20212;-78
2022/06/28 07:42:27;;;;;;;7.07;1.90;;;22.90;99.90;;;;;;5070027;28;20208;-78
2022/06/28 07:44:54;;;;;;;9.70;2.80;;;23.10;99.90;;;;;;5047911;28;20228;-79
2022/06/28 07:47:21;;;;;;;8.55;2.30;;;23.20;99.90;;;;;;5043031;28;20296;-77
2022/06/28 07:52:36;;;;;;;8.52;2.38;;;23.80;99.90;;;;;;5045726;28;20204;-78
2022/06/28 07:55:07;;;;;;;9.85;2.60;;;24.30;99.90;;;;;;5045130;28;20653;-78
2022/06/28 07:57:34;;;;;;;7.72;2.28;;;24.80;99.90;;;;;;5045805;28;20218;-78
2022/06/28 08:00:01;;;;;;;7.25;2.38;;;24.90;99.90;;;;;;5045183;28;20212;-78
2022/06/28 08:02:28;;;;;;;5.65;2.00;;;24.90;99.90;;;;;;5045275;28;20224;-78
2022/06/28 08:04:55;;;;;;;8.30;1.80;;;25.10;99.90;;;;;;5059779;28;20205;-78
2022/06/28 08:07:22;;;;;;;8.57;2.35;;;25.30;99.90;;;;;;5061555;28;20221;-78
2022/06/28 08:09:49;;;;;;;7.35;2.03;;;25.30;99.90;;;;;;5044913;28;20213;-77
2022/06/28 08:12:18;;;;;;;12.95;2.70;;;24.90;99.90;;;;;;5044496;28;20526;-78
2022/06/28 08:14:44;;;;;;;8.23;2.38;;;24.30;99.90;;;;;;5045233;28;20668;-78
2022/06/28 08:17:11;;;;;;;10.88;2.60;;;24.00;99.90;;;;;;5044322;28;20204;-77
2022/06/28 08:19:38;;;;;;;8.23;2.35;;;23.90;99.90;;;;;;5044309;28;20877;-78
2022/06/28 08:22:05;;;;;;;8.77;2.90;;;24.00;99.90;;;;;;5045017;28;20210;-77
2022/06/28 08:24:32;;;;;;;8.95;2.95;;;24.60;99.90;;;;;;5044550;28;20202;-77
2022/06/28 08:26:59;;;;;;;12.60;2.80;;;25.20;99.90;;;;;;5054572;28;20265;-78
2022/06/28 08:29:30;;;;;;;9.60;2.97;;;25.90;99.90;;;;;;5053203;28;20284;-78
2022/06/28 08:31:57;;;;;;;8.15;2.10;;;26.30;99.90;;;;;;5043299;28;20264;-78
2022/06/28 08:34:25;;;;;;;9.68;3.00;;;26.70;99.90;;;;;;5044318;28;20751;-78
2022/06/28 08:36:52;;;;;;;11.23;2.35;;;26.20;99.90;;;;;;5043811;28;20271;-79
2022/06/28 08:39:19;;;;;;;430.80;59.42;;;25.90;99.90;;;;;;5043542;28;20214;-77
2022/06/28 08:41:47;;;;;;;320.85;50.33;;;26.10;99.90;;;;;;5043031;28;20300;-78
2022/06/28 08:44:17;;;;;;;343.33;49.90;;;26.50;99.90;;;;;;5046482;28;20274;-77
2022/06/28 08:46:46;;;;;;;64.07;11.65;;;26.90;99.90;;;;;;5063634;28;20291;-77
2022/06/28 08:49:19;;;;;;;340.20;46.15;;;27.20;99.90;;;;;;5043800;28;20224;-76
2022/06/28 08:51:47;;;;;;;11.25;2.90;;;27.10;99.90;;;;;;5042676;28;20221;-79
2022/06/28 08:54:17;;;;;;;7.72;2.40;;;26.60;99.90;;;;;;5044356;28;20224;-78
2022/06/28 08:56:44;;;;;;;7.10;2.53;;;26.10;99.90;;;;;;5058268;28;20217;-78
2022/06/28 08:59:11;;;;;;;14.23;2.90;;;25.50;99.90;;;;;;5062560;28;20593;-78
2022/06/28 09:01:38;;;;;;;11.90;2.90;;;25.00;99.90;;;;;;5052128;28;20217;-79
2022/06/28 09:04:08;;;;;;;8.30;2.38;;;25.30;99.90;;;;;;5043665;28;20212;-78
2022/06/28 09:06:36;;;;;;;8.95;2.15;;;25.70;99.90;;;;;;5043010;28;20236;-77
2022/06/28 09:09:03;;;;;;;7.05;2.85;;;26.10;99.90;;;;;;5043503;28;20205;-79
2022/06/28 09:11:37;;;;;;;9.82;2.35;;;26.30;99.90;;;;;;5042136;28;20202;-78
2022/06/28 09:14:19;;;;;;;9.70;2.63;;;26.70;99.90;;;;;;5043512;28;20673;-80
2022/06/28 09:16:46;;;;;;;10.85;2.58;;;26.80;99.90;;;;;;5042666;28;20583;-77
2022/06/28 09:19:14;;;;;;;9.82;2.65;;;27.00;99.90;;;;;;5042635;28;20212;-78
2022/06/28 09:21:42;;;;;;;8.38;2.50;;;27.20;99.90;;;;;;5042706;28;20853;-77
2022/06/28 09:24:09;;;;;;;6.30;2.08;;;27.70;99.90;;;;;;5055006;28;20205;-79
2022/06/28 09:26:36;;;;;;;9.27;2.67;;;27.90;99.90;;;;;;5052447;28;20526;-78
2022/06/28 09:29:13;;;;;;;6.47;2.28;;;27.90;99.90;;;;;;5043405;28;20229;-77
2022/06/28 09:31:40;;;;;;;8.43;2.65;;;27.60;99.90;;;;;;5044041;28;20194;-80
2022/06/28 09:34:08;;;;;;;7.15;2.20;;;27.60;99.90;;;;;;5042938;28;20209;-78
2022/06/28 09:36:38;;;;;;;9.07;2.80;;;27.50;99.90;;;;;;5042999;28;20796;-77
2022/06/28 09:39:12;;;;;;;15.27;3.17;;;26.80;99.90;;;;;;5043517;28;20210;-77
2022/06/28 09:41:43;;;;;;;8.30;2.20;;;26.50;99.90;;;;;;5043923;28;20968;-79
2022/06/28 09:44:10;;;;;;;8.85;2.35;;;26.70;99.90;;;;;;5043217;28;20237;-79
2022/06/28 09:46:37;;;;;;;5.40;2.08;;;26.90;99.90;;;;;;5043351;28;20213;-79
2022/06/28 09:49:06;;;;;;;9.18;2.60;;;27.10;99.90;;;;;;5042002;28;20229;-78
2022/06/28 09:51:37;;;;;;;11.25;2.85;;;27.40;99.90;;;;;;5044311;28;20209;-80
2022/06/28 09:54:06;;;;;;;9.25;2.72;;;27.20;99.90;;;;;;5043217;28;20676;-77
2022/06/28 09:56:37;;;;;;;10.35;2.45;;;26.90;99.90;;;;;;5042940;28;20354;-77
2022/06/28 09:59:05;;;;;;;10.00;2.75;;;26.50;99.90;;;;;;5043589;28;20198;-76
2022/06/28 10:01:33;;;;;;;8.07;2.53;;;26.30;99.90;;;;;;5043204;28;20205;-77
2022/06/28 10:04:00;;;;;;;9.80;3.05;;;26.10;99.90;;;;;;5043695;28;20292;-77
2022/06/28 10:06:27;;;;;;;19.20;3.55;;;25.80;99.90;;;;;;5043596;28;20657;-78
2022/06/28 10:08:56;;;;;;;8.18;2.30;;;26.10;99.90;;;;;;5042346;28;20205;-76
2022/06/28 10:11:23;;;;;;;11.02;2.75;;;26.20;99.90;;;;;;5043485;28;20370;-77
2022/06/28 10:16:47;;;;;;;27.92;8.32;;;26.40;99.90;;;;;;5042695;28;20313;-77
2022/06/28 10:19:16;;;;;;;8.20;2.25;;;26.50;99.90;;;;;;5043098;28;20251;-79
2022/06/28 10:21:46;;;;;;;10.18;2.95;;;26.70;99.90;;;;;;5042547;28;20205;-77
2022/06/28 10:24:15;;;;;;;8.07;2.42;;;26.60;99.90;;;;;;5042532;28;20560;-77
2022/06/28 10:26:46;;;;;;;9.48;2.70;;;26.60;99.90;;;;;;5043367;28;20228;-76
2022/06/28 10:29:15;;;;;;;9.85;2.55;;;26.50;99.90;;;;;;5062506;28;20220;-78
2022/06/28 10:31:43;;;;;;;9.30;3.03;;;26.40;99.90;;;;;;5055389;28;20208;-77
2022/06/28 10:34:12;;;;;;;12.43;2.90;;;26.40;99.90;;;;;;5043157;28;20205;-78
2022/06/28 10:36:48;;;;;;;8.88;2.50;;;26.30;99.90;;;;;;5042206;28;20229;-77
2022/06/28 10:39:25;;;;;;;7.78;2.17;;;26.20;99.90;;;;;;5055710;28;20244;-77
2022/06/28 10:41:53;;;;;;;10.43;2.70;;;26.10;99.90;;;;;;5063070;28;20201;-75
2022/06/28 10:44:23;;;;;;;7.75;3.25;;;26.20;99.90;;;;;;5062110;28;20288;-75
2022/06/28 10:46:52;;;;;;;9.07;2.65;;;26.50;99.90;;;;;;5047537;28;20202;-78
2022/06/28 10:49:20;;;;;;;7.53;2.10;;;26.60;99.90;;;;;;5047796;28;20206;-77
2022/06/28 10:52:10;;;;;;;7.97;2.38;;;26.40;99.90;;;;;;5041985;28;20194;-77
2022/06/28 10:54:40;;;;;;;6.85;2.45;;;26.60;99.90;;;;;;5041989;28;20512;-79
2022/06/28 10:57:24;;;;;;;11.40;3.35;;;26.80;99.90;;;;;;5041492;28;20283;-78
2022/06/28 10:59:53;;;;;;;9.40;2.65;;;26.90;99.90;;;;;;5042814;28;20228;-78
2022/06/28 11:02:21;;;;;;;7.68;2.95;;;27.00;99.90;;;;;;5042934;28;20292;-77
2022/06/28 11:05:03;;;;;;;8.32;2.40;;;27.30;99.90;;;;;;5044739;28;20700;-78
2022/06/28 11:07:31;;;;;;;9.65;2.55;;;27.20;99.90;;;;;;5046220;28;20222;-77
2022/06/28 11:10:10;;;;;;;9.82;2.30;;;27.10;99.90;;;;;;5046232;28;20221;-78
2022/06/28 11:12:40;;;;;;;9.07;2.25;;;27.10;99.90;;;;;;5046019;28;20197;-77
2022/06/28 11:15:09;;;;;;;8.90;2.85;;;27.10;99.90;;;;;;5050351;28;20226;-77
2022/06/28 11:17:38;;;;;;;12.35;3.22;;;27.20;99.90;;;;;;5065394;28;20251;-78
2022/06/28 11:20:08;;;;;;;7.90;2.38;;;27.30;99.90;;;;;;5047526;28;20482;-77
2022/06/28 11:22:40;;;;;;;7.82;2.40;;;27.40;99.90;;;;;;5052004;28;20217;-77
2022/06/28 11:25:11;;;;;;;6.50;2.53;;;27.30;99.90;;;;;;5061063;28;20205;-78
2022/06/28 11:27:44;;;;;;;7.00;2.22;;;27.40;99.90;;;;;;5054544;28;20233;-77
2022/06/28 11:30:11;;;;;;;7.63;2.83;;;27.40;99.90;;;;;;5063457;28;20493;-77
2022/06/28 11:32:40;;;;;;;6.78;2.10;;;27.40;99.90;;;;;;5044610;28;20210;-78
2022/06/28 11:35:10;;;;;;;9.82;2.30;;;27.50;99.90;;;;;;5045078;28;20210;-78
2022/06/28 11:37:50;;;;;;;5.93;2.08;;;27.60;99.90;;;;;;5051577;28;20216;-78
2022/06/28 11:40:20;;;;;;;6.80;1.90;;;27.40;99.90;;;;;;5045057;28;20216;-80
2022/06/28 11:42:48;;;;;;;7.30;2.50;;;27.20;99.90;;;;;;5051937;28;20216;-77
2022/06/28 11:45:16;;;;;;;6.68;2.03;;;27.20;99.90;;;;;;5044662;28;20666;-78
2022/06/28 11:47:46;;;;;;;7.50;2.38;;;27.20;99.90;;;;;;5044417;28;20217;-77
2022/06/28 11:50:16;;;;;;;11.38;2.65;;;27.20;99.90;;;;;;5046335;28;20297;-77
2022/06/28 11:52:48;;;;;;;9.27;2.83;;;27.10;99.90;;;;;;5061254;28;20268;-77
2022/06/28 11:55:15;;;;;;;7.22;2.55;;;27.10;99.90;;;;;;5043887;28;20214;-77
2022/06/28 11:57:45;;;;;;;8.68;2.50;;;27.30;99.90;;;;;;5043955;28;20202;-78
2022/06/28 12:00:14;;;;;;;6.68;2.17;;;27.30;99.90;;;;;;5046493;28;20212;-78
2022/06/28 12:02:49;;;;;;;7.82;2.50;;;27.40;99.90;;;;;;5044401;28;20204;-77
2022/06/28 12:05:29;;;;;;;10.88;3.08;;;27.40;99.90;;;;;;5045033;28;20943;-77
2022/06/28 12:07:56;;;;;;;6.45;2.15;;;27.60;99.90;;;;;;5043865;28;20213;-78
2022/06/28 12:10:28;;;;;;;11.07;2.58;;;27.70;99.90;;;;;;5052312;28;20692;-78
2022/06/28 12:12:57;;;;;;;8.82;2.92;;;27.70;99.90;;;;;;5065100;28;20798;-77
2022/06/28 12:15:30;;;;;;;8.43;2.88;;;27.70;99.90;;;;;;5062808;28;20253;-78
2022/06/28 12:18:02;;;;;;;10.30;2.90;;;27.80;99.90;;;;;;5065373;28;20200;-78
2022/06/28 12:20:30;;;;;;;8.77;2.83;;;27.80;99.90;;;;;;5064666;28;20201;-79
2022/06/28 12:22:58;;;;;;;8.52;2.50;;;27.70;99.90;;;;;;5058523;28;20201;-79
2022/06/28 12:25:25;;;;;;;8.70;2.60;;;27.60;99.90;;;;;;5043723;28;20209;-77
2022/06/28 12:27:52;;;;;;;9.32;2.78;;;27.60;99.90;;;;;;5043723;28;20245;-79
2022/06/28 12:30:21;;;;;;;7.97;2.60;;;27.70;99.90;;;;;;5063039;28;20563;-77
2022/06/28 12:32:49;;;;;;;6.47;2.20;;;27.80;99.90;;;;;;5062570;28;20205;-77
2022/06/28 12:35:18;;;;;;;6.60;2.13;;;28.00;99.90;;;;;;5063651;28;20205;-78
2022/06/28 12:37:45;;;;;;;5.45;1.90;;;28.10;99.90;;;;;;5045368;28;20213;-77
2022/06/28 12:40:14;;;;;;;10.15;2.28;;;28.10;99.90;;;;;;5044703;28;20602;-77
2022/06/28 12:42:41;;;;;;;6.65;2.13;;;27.90;99.90;;;;;;5043245;28;20516;-78
2022/06/28 12:45:08;;;;;;;7.22;1.80;;;27.90;99.90;;;;;;5044542;28;20289;-77
2022/06/28 12:47:40;;;;;;;6.43;1.90;;;27.70;99.90;;;;;;5045866;28;20205;-77
2022/06/28 12:50:10;;;;;;;6.88;2.22;;;27.80;99.90;;;;;;5043214;28;20207;-79
2022/06/28 12:52:38;;;;;;;4.32;1.73;;;27.70;99.90;;;;;;5044611;28;20205;-77
2022/06/28 12:55:06;;;;;;;5.75;1.70;;;27.70;99.90;;;;;;5044580;28;20206;-77
2022/06/28 12:57:33;;;;;;;5.07;2.10;;;27.60;99.90;;;;;;5050701;28;20648;-76
2022/06/28 13:00:00;;;;;;;4.90;1.65;;;27.50;99.90;;;;;;5064167;28;20207;-77
2022/06/28 13:02:27;;;;;;;5.03;1.58;;;27.60;99.90;;;;;;5052634;28;20730;-77